createdAt,value
2018-09-28T00:00:01.484Z,13.26
2018-09-28T00:02:30.867Z,13.32
2018-09-28T00:05:00.340Z,13.35
2018-09-28T00:07:29.743Z,13.37
2018-09-28T00:09:59.147Z,13.39
2018-09-28T00:12:28.560Z,13.41
2018-09-28T00:14:57.976Z,13.41
2018-09-28T00:17:27.407Z,13.39
2018-09-28T00:19:56.779Z,13.38
2018-09-28T00:22:26.182Z,13.37
2018-09-28T00:24:55.575Z,13.36
2018-09-28T00:27:25.004Z,13.35
2018-09-28T00:29:54.403Z,13.33
2018-09-28T00:32:23.828Z,13.31
2018-09-28T00:34:53.296Z,13.28
2018-09-28T00:37:22.736Z,13.23
2018-09-28T00:39:52.152Z,13.17
2018-09-28T00:42:21.572Z,13.12
2018-09-28T00:44:51.028Z,13.09
2018-09-28T00:47:20.419Z,13.05
2018-09-28T00:49:49.815Z,13.01
2018-09-28T00:52:19.272Z,12.96
2018-09-28T00:54:48.675Z,12.90
2018-09-28T00:57:18.115Z,12.90
2018-09-28T00:59:47.516Z,12.88
2018-09-28T01:02:17.135Z,12.88
2018-09-28T01:04:46.753Z,12.87
2018-09-28T01:07:16.156Z,12.86
2018-09-28T01:09:45.561Z,12.86
2018-09-28T01:12:14.965Z,12.82
2018-09-28T01:14:44.538Z,12.80
2018-09-28T01:17:13.964Z,12.75
2018-09-28T01:19:43.447Z,12.70
2018-09-28T01:22:12.935Z,12.65
2018-09-28T01:24:42.546Z,12.61
2018-09-28T01:27:11.962Z,12.59
2018-09-28T01:29:41.348Z,12.58
2018-09-28T01:32:10.780Z,12.54
2018-09-28T01:34:40.173Z,12.48
2018-09-28T01:37:09.726Z,12.42
2018-09-28T01:39:39.088Z,12.37
2018-09-28T01:42:08.667Z,12.32
2018-09-28T01:44:38.117Z,12.27
2018-09-28T01:47:07.542Z,12.22
2018-09-28T01:49:37.004Z,12.16
2018-09-28T01:52:06.430Z,12.16
2018-09-28T01:54:35.885Z,12.15
2018-09-28T01:57:05.301Z,12.15
2018-09-28T01:59:34.723Z,12.14
2018-09-28T02:02:04.189Z,12.13
2018-09-28T02:04:33.661Z,12.13
2018-09-28T02:07:03.239Z,12.12
2018-09-28T02:09:32.661Z,12.10
2018-09-28T02:12:02.124Z,12.08
2018-09-28T02:14:31.563Z,12.07
2018-09-28T02:17:00.984Z,12.10
2018-09-28T02:19:30.437Z,12.12
2018-09-28T02:21:59.898Z,12.11
2018-09-28T02:24:29.586Z,12.14
2018-09-28T02:26:59.063Z,12.16
2018-09-28T02:29:28.509Z,12.15
2018-09-28T02:31:57.958Z,12.15
2018-09-28T02:34:27.789Z,12.16
2018-09-28T02:36:57.275Z,12.18
2018-09-28T02:39:26.745Z,12.16
2018-09-28T02:41:56.425Z,12.15
2018-09-28T02:44:26.067Z,12.15
2018-09-28T02:46:55.549Z,12.15
2018-09-28T02:49:25.237Z,12.16
2018-09-28T02:51:54.719Z,12.16
2018-09-28T02:54:24.220Z,12.16
2018-09-28T02:56:53.761Z,12.14
2018-09-28T02:59:23.510Z,12.13
2018-09-28T03:01:52.961Z,12.13
2018-09-28T03:04:22.369Z,12.12
2018-09-28T03:06:52.033Z,12.13
2018-09-28T03:09:21.471Z,12.12
2018-09-28T03:11:50.983Z,12.11
2018-09-28T03:14:20.631Z,12.10
2018-09-28T03:16:50.074Z,12.10
2018-09-28T03:19:19.610Z,12.09
2018-09-28T03:21:49.660Z,12.11
2018-09-28T03:24:19.140Z,12.10
2018-09-28T03:26:48.633Z,12.11
2018-09-28T03:29:18.152Z,12.15
2018-09-28T03:31:47.630Z,12.17
2018-09-28T03:34:17.097Z,12.20
2018-09-28T03:36:46.566Z,12.22
2018-09-28T03:39:15.990Z,12.23
2018-09-28T03:41:45.471Z,12.23
2018-09-28T03:44:14.921Z,12.26
2018-09-28T03:46:44.510Z,12.29
2018-09-28T03:49:13.971Z,12.30
2018-09-28T03:51:43.418Z,12.33
2018-09-28T03:54:12.933Z,12.32
2018-09-28T03:56:42.396Z,12.33
2018-09-28T03:59:11.858Z,12.32
2018-09-28T04:01:41.342Z,12.31
2018-09-28T04:04:10.826Z,12.30
2018-09-28T04:06:40.314Z,12.30
2018-09-28T04:09:11.349Z,12.29
2018-09-28T04:11:40.839Z,12.26
2018-09-28T04:14:10.309Z,12.25
2018-09-28T04:16:39.770Z,12.26
2018-09-28T04:19:09.403Z,12.25
2018-09-28T04:21:39.111Z,12.25
2018-09-28T04:24:08.840Z,12.23
2018-09-28T04:26:38.327Z,12.24
2018-09-28T04:29:07.822Z,12.25
2018-09-28T04:31:37.258Z,12.25
2018-09-28T04:34:06.961Z,12.24
2018-09-28T04:36:36.442Z,12.23
2018-09-28T04:39:07.229Z,12.20
2018-09-28T04:41:36.737Z,12.18
2018-09-28T04:44:06.175Z,12.15
2018-09-28T04:46:35.666Z,12.18
2018-09-28T04:49:05.325Z,12.21
2018-09-28T04:51:34.837Z,12.28
2018-09-28T04:54:04.370Z,12.39
2018-09-28T04:56:33.870Z,12.53
2018-09-28T04:59:03.419Z,12.65
2018-09-28T05:01:32.877Z,12.78
2018-09-28T05:04:02.345Z,12.90
2018-09-28T05:06:31.758Z,12.97
2018-09-28T05:09:01.272Z,13.01
2018-09-28T05:11:30.721Z,13.11
2018-09-28T05:14:00.174Z,13.20
2018-09-28T05:16:29.660Z,13.32
2018-09-28T05:18:59.227Z,13.40
2018-09-28T05:21:28.673Z,13.49
2018-09-28T05:23:58.238Z,13.55
2018-09-28T05:26:27.744Z,13.62
2018-09-28T05:28:57.709Z,13.66
2018-09-28T05:31:27.480Z,13.71
2018-09-28T05:33:57.008Z,13.75
2018-09-28T05:36:26.546Z,13.83
2018-09-28T05:38:56.019Z,13.90
2018-09-28T05:41:25.517Z,13.95
2018-09-28T05:43:55.093Z,14.00
2018-09-28T05:46:24.594Z,14.01
2018-09-28T05:48:53.946Z,14.04
2018-09-28T05:51:23.466Z,14.06
2018-09-28T05:53:53.430Z,14.08
2018-09-28T05:56:23.001Z,14.09
2018-09-28T05:58:57.579Z,14.09
2018-09-28T06:01:32.412Z,14.09
2018-09-28T06:04:07.192Z,14.08
2018-09-28T06:06:36.740Z,14.08
2018-09-28T06:09:10.345Z,14.08
2018-09-28T06:11:40.477Z,14.08
2018-09-28T06:14:10.201Z,14.06
2018-09-28T06:16:39.665Z,14.05
2018-09-28T06:19:09.169Z,14.06
2018-09-28T06:21:38.619Z,14.08
2018-09-28T06:24:08.120Z,14.08
2018-09-28T06:26:37.515Z,14.08
2018-09-28T06:29:07.321Z,14.07
2018-09-28T06:31:36.805Z,14.09
2018-09-28T06:34:06.287Z,14.11
2018-09-28T06:36:35.783Z,14.15
2018-09-28T06:39:06.601Z,14.18
2018-09-28T06:41:36.109Z,14.22
2018-09-28T06:44:05.974Z,14.25
2018-09-28T06:46:35.428Z,14.30
2018-09-28T06:49:04.892Z,14.36
2018-09-28T06:51:34.417Z,14.43
2018-09-28T06:54:04.062Z,14.49
2018-09-28T06:56:33.494Z,14.54
2018-09-28T06:59:02.953Z,14.59
2018-09-28T07:01:32.521Z,14.58
2018-09-28T07:04:02.074Z,14.57
2018-09-28T07:06:31.546Z,15.16
2018-09-28T07:09:01.078Z,16.71
2018-09-28T07:11:30.521Z,18.41
2018-09-28T07:14:00.064Z,20.08
2018-09-28T07:16:29.575Z,21.32
2018-09-28T07:18:58.951Z,21.47
2018-09-28T07:21:28.489Z,21.30
2018-09-28T07:23:58.086Z,21.55
2018-09-28T07:26:27.456Z,21.81
2018-09-28T07:28:56.909Z,21.59
2018-09-28T07:31:26.499Z,21.77
2018-09-28T07:33:55.964Z,22.20
2018-09-28T07:36:25.582Z,22.72
2018-09-28T07:38:54.955Z,23.18
2018-09-28T07:41:24.543Z,23.42
2018-09-28T07:43:54.092Z,23.78
2018-09-28T07:46:23.530Z,24.24
2018-09-28T07:48:52.980Z,24.17
2018-09-28T07:51:22.437Z,23.95
2018-09-28T07:53:52.050Z,23.97
2018-09-28T07:56:21.669Z,24.18
2018-09-28T07:58:51.093Z,24.38
2018-09-28T08:01:20.533Z,24.64
2018-09-28T08:03:50.023Z,25.13
2018-09-28T08:06:19.443Z,25.53
2018-09-28T08:08:48.857Z,25.74
2018-09-28T08:11:18.301Z,25.49
2018-09-28T08:13:47.746Z,25.42
2018-09-28T08:16:17.203Z,25.53
2018-09-28T08:18:46.637Z,25.23
2018-09-28T08:21:16.125Z,24.34
2018-09-28T08:23:45.582Z,23.36
2018-09-28T08:26:15.021Z,23.05
2018-09-28T08:28:44.584Z,23.61
2018-09-28T08:31:14.054Z,24.70
2018-09-28T08:33:43.477Z,25.33
2018-09-28T08:36:12.949Z,25.00
2018-09-28T08:38:42.365Z,24.60
2018-09-28T08:41:11.809Z,24.49
2018-09-28T08:43:41.290Z,24.95
2018-09-28T08:46:10.690Z,25.31
2018-09-28T08:48:40.228Z,25.64
2018-09-28T08:51:09.648Z,25.58
2018-09-28T08:53:39.156Z,25.46
2018-09-28T08:56:08.826Z,26.01
2018-09-28T08:58:38.289Z,26.42
2018-09-28T09:01:07.820Z,26.18
2018-09-28T09:03:37.432Z,26.24
2018-09-28T09:06:06.893Z,26.18
2018-09-28T09:08:36.351Z,25.80
2018-09-28T09:11:05.798Z,25.31
2018-09-28T09:13:35.265Z,25.37
2018-09-28T09:16:04.898Z,25.52
2018-09-28T09:18:34.318Z,25.49
2018-09-28T09:21:03.798Z,24.96
2018-09-28T09:23:33.225Z,23.91
2018-09-28T09:26:02.645Z,22.95
2018-09-28T09:28:32.130Z,22.14
2018-09-28T09:31:01.561Z,21.61
2018-09-28T09:33:31.021Z,21.37
2018-09-28T09:36:00.513Z,21.17
2018-09-28T09:38:29.952Z,20.85
2018-09-28T09:40:59.415Z,20.57
2018-09-28T09:43:28.859Z,20.55
2018-09-28T09:45:58.346Z,20.96
2018-09-28T09:48:27.862Z,21.45
2018-09-28T09:50:57.558Z,22.01
2018-09-28T09:53:27.002Z,22.51
2018-09-28T09:55:56.482Z,22.85
2018-09-28T09:58:25.949Z,23.25
2018-09-28T10:01:00.678Z,23.37
2018-09-28T10:03:35.214Z,23.40
2018-09-28T10:06:04.654Z,23.65
2018-09-28T10:08:34.145Z,23.93
2018-09-28T10:11:03.677Z,23.75
2018-09-28T10:13:33.185Z,23.52
2018-09-28T10:16:02.816Z,23.13
2018-09-28T10:18:32.424Z,22.62
2018-09-28T10:21:01.933Z,22.45
2018-09-28T10:23:31.397Z,22.53
2018-09-28T10:26:00.853Z,22.66
2018-09-28T10:28:30.318Z,22.75
2018-09-28T10:30:59.869Z,22.93
2018-09-28T10:33:29.347Z,22.88
2018-09-28T10:35:58.742Z,22.68
2018-09-28T10:38:28.213Z,22.59
2018-09-28T10:40:57.805Z,22.53
2018-09-28T10:43:27.153Z,22.59
2018-09-28T10:45:56.673Z,22.51
2018-09-28T10:48:26.253Z,22.41
2018-09-28T10:50:55.747Z,22.03
2018-09-28T10:53:25.163Z,21.72
2018-09-28T10:55:54.597Z,21.43
2018-09-28T10:58:24.168Z,21.21
2018-09-28T11:00:53.650Z,20.82
2018-09-28T11:03:23.140Z,20.36
2018-09-28T11:05:52.545Z,19.99
2018-09-28T11:08:22.050Z,19.72
2018-09-28T11:10:51.561Z,19.59
2018-09-28T11:13:20.957Z,19.45
2018-09-28T11:15:50.693Z,19.26
2018-09-28T11:18:20.180Z,19.01
2018-09-28T11:20:49.813Z,18.82
2018-09-28T11:23:19.397Z,18.63
2018-09-28T11:25:48.949Z,18.54
2018-09-28T11:28:18.406Z,18.50
2018-09-28T11:30:48.041Z,18.54
2018-09-28T11:33:17.754Z,18.63
2018-09-28T11:35:47.200Z,18.61
2018-09-28T11:38:16.698Z,18.66
2018-09-28T11:40:46.113Z,18.76
2018-09-28T11:43:15.623Z,18.79
2018-09-28T11:45:45.100Z,18.66
2018-09-28T11:48:14.477Z,18.59
2018-09-28T11:50:44.038Z,18.63
2018-09-28T11:53:13.556Z,18.64
2018-09-28T11:55:43.057Z,18.59
2018-09-28T11:58:12.529Z,18.70
2018-09-28T12:00:42.038Z,18.83
2018-09-28T12:03:11.553Z,18.90
2018-09-28T12:05:40.917Z,18.86
2018-09-28T12:08:10.477Z,18.85
2018-09-28T12:10:39.926Z,18.87
2018-09-28T12:13:09.391Z,18.85
2018-09-28T12:15:39.009Z,18.93
2018-09-28T12:18:08.487Z,18.91
2018-09-28T12:20:37.971Z,18.90
2018-09-28T12:23:07.741Z,18.98
2018-09-28T12:25:37.178Z,19.12
2018-09-28T12:28:06.613Z,19.12
2018-09-28T12:30:36.174Z,19.11
2018-09-28T12:33:05.670Z,18.92
2018-09-28T12:35:35.088Z,18.66
2018-09-28T12:38:04.649Z,18.44
2018-09-28T12:40:34.149Z,18.24
2018-09-28T12:43:03.622Z,17.98
2018-09-28T12:45:33.148Z,17.77
2018-09-28T12:48:02.639Z,17.66
2018-09-28T12:50:32.188Z,17.57
2018-09-28T12:53:01.655Z,17.51
2018-09-28T12:55:31.137Z,17.41
2018-09-28T12:58:00.580Z,17.26
2018-09-28T13:00:30.092Z,17.16
2018-09-28T13:02:59.592Z,17.07
2018-09-28T13:05:29.043Z,17.04
2018-09-28T13:07:58.569Z,17.07
2018-09-28T13:10:28.056Z,17.13
2018-09-28T13:12:57.522Z,17.12
2018-09-28T13:15:27.021Z,17.11
2018-09-28T13:17:56.497Z,17.11
2018-09-28T13:20:26.042Z,17.10
2018-09-28T13:22:55.566Z,17.14
2018-09-28T13:25:25.034Z,17.15
2018-09-28T13:27:54.518Z,17.14
2018-09-28T13:30:24.143Z,17.16
2018-09-28T13:32:53.587Z,17.08
2018-09-28T13:35:23.125Z,16.96
2018-09-28T13:37:52.781Z,16.90
2018-09-28T13:40:22.417Z,16.91
2018-09-28T13:42:51.893Z,16.92
2018-09-28T13:45:21.405Z,16.99
2018-09-28T13:47:50.824Z,17.05
2018-09-28T13:50:20.414Z,16.98
2018-09-28T13:52:49.940Z,16.88
2018-09-28T13:55:19.393Z,16.79
2018-09-28T13:57:48.930Z,16.74
2018-09-28T14:00:18.447Z,16.74
2018-09-28T14:02:48.004Z,16.70
2018-09-28T14:05:17.398Z,16.61
2018-09-28T14:07:46.857Z,16.59
2018-09-28T14:10:16.414Z,16.63
2018-09-28T14:12:45.893Z,16.58
2018-09-28T14:15:21.890Z,16.46
2018-09-28T14:17:51.455Z,16.38
2018-09-28T14:20:20.949Z,16.44
2018-09-28T14:22:52.279Z,16.49
2018-09-28T14:25:21.613Z,16.50
2018-09-28T14:27:51.070Z,16.52
2018-09-28T14:30:20.719Z,16.53
2018-09-28T14:32:50.158Z,16.66
2018-09-28T14:35:19.573Z,16.71
2018-09-28T14:37:49.095Z,16.74
2018-09-28T14:40:18.603Z,16.68
2018-09-28T14:42:48.057Z,16.58
2018-09-28T14:45:17.574Z,16.48
2018-09-28T14:47:47.018Z,16.41
2018-09-28T14:50:16.499Z,16.31
2018-09-28T14:52:46.011Z,16.29
2018-09-28T14:55:15.389Z,16.26
2018-09-28T14:57:44.883Z,16.23
2018-09-28T15:00:14.334Z,16.18
2018-09-28T15:02:43.877Z,16.12
2018-09-28T15:05:13.269Z,16.06
2018-09-28T15:07:42.807Z,16.04
2018-09-28T15:10:12.273Z,16.01
2018-09-28T15:12:41.783Z,15.94
2018-09-28T15:15:11.362Z,15.83
2018-09-28T15:17:40.734Z,15.75
2018-09-28T15:20:10.181Z,15.67
2018-09-28T15:22:39.626Z,15.62
2018-09-28T15:25:09.072Z,15.53
2018-09-28T15:27:38.487Z,15.45
2018-09-28T15:30:08.481Z,15.36
2018-09-28T15:32:38.014Z,15.25
2018-09-28T15:35:07.538Z,15.14
2018-09-28T15:37:36.969Z,15.03
2018-09-28T15:40:07.056Z,14.94
2018-09-28T15:42:36.493Z,14.86
2018-09-28T15:45:06.261Z,14.76
2018-09-28T15:47:35.885Z,14.70
2018-09-28T15:50:05.926Z,14.62
2018-09-28T15:52:35.497Z,14.52
2018-09-28T15:55:04.979Z,14.43
2018-09-28T15:57:34.438Z,14.39
2018-09-28T16:00:03.947Z,14.31
2018-09-28T16:02:33.429Z,14.26
2018-09-28T16:05:02.857Z,14.19
2018-09-28T16:07:32.343Z,14.10
2018-09-28T16:10:01.862Z,14.01
2018-09-28T16:12:31.323Z,13.92
2018-09-28T16:15:00.773Z,13.85
2018-09-28T16:17:30.244Z,13.79
2018-09-28T16:19:59.689Z,13.71
2018-09-28T16:22:29.163Z,13.64
2018-09-28T16:24:58.593Z,13.61
2018-09-28T16:27:28.071Z,13.56
2018-09-28T16:29:57.531Z,13.51
2018-09-28T16:32:26.959Z,13.47
2018-09-28T16:34:56.425Z,13.44
2018-09-28T16:37:25.978Z,13.40
2018-09-28T16:39:55.397Z,13.35
2018-09-28T16:42:24.825Z,13.29
2018-09-28T16:44:54.285Z,13.21
2018-09-28T16:47:23.702Z,13.14
2018-09-28T16:49:53.153Z,13.08
2018-09-28T16:52:22.613Z,13.06
2018-09-28T16:54:52.021Z,13.00
2018-09-28T16:57:21.441Z,12.93
2018-09-28T16:59:50.880Z,12.86
2018-09-28T17:02:20.332Z,12.77
2018-09-28T17:04:49.816Z,12.67
2018-09-28T17:07:19.340Z,12.58
2018-09-28T17:09:49.662Z,12.51
2018-09-28T17:12:19.390Z,12.42
2018-09-28T17:14:48.935Z,12.35
2018-09-28T17:17:18.373Z,12.30
2018-09-28T17:19:48.310Z,12.23
2018-09-28T17:22:17.761Z,12.17
2018-09-28T17:24:47.766Z,12.09
2018-09-28T17:27:17.557Z,12.04
2018-09-28T17:29:47.070Z,12.01
2018-09-28T17:32:16.742Z,12.00
2018-09-28T17:34:46.853Z,12.01
2018-09-28T17:37:16.579Z,12.02
2018-09-28T17:39:46.267Z,11.95
2018-09-28T17:42:15.958Z,11.91
2018-09-28T17:44:45.773Z,11.86
2018-09-28T17:47:15.527Z,11.82
2018-09-28T17:49:45.277Z,11.73
2018-09-28T17:52:15.309Z,11.64
2018-09-28T17:54:44.911Z,11.62
2018-09-28T17:57:14.854Z,11.57
2018-09-28T17:59:44.703Z,11.49
2018-09-28T18:02:14.857Z,11.44
2018-09-28T18:04:44.712Z,11.37
2018-09-28T18:07:14.162Z,11.31
2018-09-28T18:09:43.721Z,11.25
2018-09-28T18:12:13.349Z,11.20
2018-09-28T18:14:42.850Z,11.14
2018-09-28T18:17:12.331Z,11.09
2018-09-28T18:19:41.969Z,11.05
2018-09-28T18:22:11.419Z,11.04
2018-09-28T18:24:40.947Z,11.03
2018-09-28T18:27:10.407Z,10.99
2018-09-28T18:29:40.073Z,10.96
2018-09-28T18:32:09.515Z,10.92
2018-09-28T18:34:39.033Z,10.89
2018-09-28T18:37:08.617Z,10.87
2018-09-28T18:39:38.065Z,10.86
2018-09-28T18:42:07.609Z,10.87
2018-09-28T18:44:37.078Z,10.88
2018-09-28T18:47:06.902Z,10.91
2018-09-28T18:49:36.552Z,10.94
2018-09-28T18:52:06.036Z,10.92
2018-09-28T18:54:35.744Z,10.90
2018-09-28T18:57:05.194Z,10.85
2018-09-28T18:59:34.754Z,10.82
2018-09-28T19:02:04.211Z,10.81
2018-09-28T19:04:33.717Z,10.78
2018-09-28T19:07:03.198Z,10.73
2018-09-28T19:09:32.669Z,10.69
2018-09-28T19:12:02.104Z,10.66
2018-09-28T19:14:31.613Z,10.61
2018-09-28T19:17:01.144Z,10.56
2018-09-28T19:19:30.702Z,10.51
2018-09-28T19:22:00.157Z,10.46
2018-09-28T19:24:29.582Z,10.42
2018-09-28T19:26:59.093Z,10.42
2018-09-28T19:29:28.537Z,10.44
2018-09-28T19:31:57.997Z,10.47
2018-09-28T19:34:27.706Z,10.50
2018-09-28T19:36:57.186Z,10.50
2018-09-28T19:39:26.670Z,10.52
2018-09-28T19:41:56.137Z,10.56
2018-09-28T19:44:25.609Z,10.56
2018-09-28T19:46:55.101Z,10.58
2018-09-28T19:49:24.578Z,10.59
2018-09-28T19:51:54.060Z,10.54
2018-09-28T19:54:23.541Z,10.51
2018-09-28T19:56:52.972Z,10.45
2018-09-28T19:59:22.535Z,10.37
2018-09-28T20:01:52.030Z,10.33
2018-09-28T20:04:21.539Z,10.27
2018-09-28T20:06:51.078Z,10.18
2018-09-28T20:09:20.569Z,10.12
2018-09-28T20:11:50.050Z,10.06
2018-09-28T20:14:22.425Z,10.02
2018-09-28T20:16:51.853Z,9.96
2018-09-28T20:19:21.342Z,9.94
2018-09-28T20:21:50.741Z,9.93
2018-09-28T20:24:20.205Z,9.89
2018-09-28T20:26:49.653Z,9.85
2018-09-28T20:29:19.094Z,9.92
2018-09-28T20:31:48.530Z,9.90
2018-09-28T20:34:18.026Z,9.87
2018-09-28T20:36:47.463Z,9.83
2018-09-28T20:39:16.925Z,9.78
2018-09-28T20:41:46.381Z,9.72
2018-09-28T20:44:15.879Z,9.71
2018-09-28T20:46:45.371Z,9.73
2018-09-28T20:49:14.781Z,9.74
2018-09-28T20:51:44.201Z,9.75
2018-09-28T20:54:13.639Z,9.77
2018-09-28T20:56:43.057Z,9.77
2018-09-28T20:59:12.544Z,9.76
2018-09-28T21:01:42.581Z,9.72
2018-09-28T21:04:12.150Z,9.71
2018-09-28T21:06:41.632Z,9.71
2018-09-28T21:09:11.644Z,9.71
2018-09-28T21:11:41.148Z,9.74
2018-09-28T21:14:10.712Z,9.78
2018-09-28T21:16:40.190Z,9.84
2018-09-28T21:19:09.721Z,9.89
2018-09-28T21:21:39.270Z,9.91
2018-09-28T21:24:08.910Z,9.95
2018-09-28T21:26:38.393Z,9.98
2018-09-28T21:29:08.242Z,9.99
2018-09-28T21:31:37.777Z,10.01
2018-09-28T21:34:07.396Z,10.02
2018-09-28T21:36:36.883Z,10.01
2018-09-28T21:39:09.325Z,10.01
2018-09-28T21:41:38.830Z,10.01
2018-09-28T21:44:09.014Z,10.02
2018-09-28T21:46:38.513Z,9.98
2018-09-28T21:49:08.024Z,9.92
2018-09-28T21:51:37.529Z,9.91
2018-09-28T21:54:07.037Z,9.89
2018-09-28T21:56:36.615Z,9.85
2018-09-28T21:59:06.145Z,9.82
2018-09-28T22:01:35.708Z,9.79
2018-09-28T22:04:05.205Z,9.76
2018-09-28T22:06:34.681Z,9.74
2018-09-28T22:09:05.285Z,9.73
2018-09-28T22:11:34.773Z,9.71
2018-09-28T22:14:04.243Z,9.66
2018-09-28T22:16:33.997Z,9.63
2018-09-28T22:19:03.442Z,9.61
2018-09-28T22:21:32.972Z,9.62
2018-09-28T22:24:02.446Z,9.58
2018-09-28T22:26:31.923Z,9.54
2018-09-28T22:29:01.469Z,9.55
2018-09-28T22:31:30.930Z,9.54
2018-09-28T22:34:00.398Z,9.55
2018-09-28T22:36:29.837Z,9.55
2018-09-28T22:38:59.316Z,9.53
2018-09-28T22:41:28.817Z,9.53
2018-09-28T22:43:58.433Z,9.51
2018-09-28T22:46:27.864Z,9.50
2018-09-28T22:48:57.430Z,9.49
2018-09-28T22:51:26.940Z,9.44
2018-09-28T22:53:56.378Z,9.42
2018-09-28T22:56:25.955Z,9.35
2018-09-28T22:58:55.425Z,9.32
2018-09-28T23:01:24.869Z,9.26
2018-09-28T23:03:54.376Z,9.23
2018-09-28T23:06:23.810Z,9.25
2018-09-28T23:08:53.364Z,9.29
2018-09-28T23:11:22.895Z,9.26
2018-09-28T23:13:52.394Z,9.22
2018-09-28T23:16:21.857Z,9.22
2018-09-28T23:18:51.403Z,9.15
2018-09-28T23:21:20.838Z,9.10
2018-09-28T23:23:50.265Z,9.07
2018-09-28T23:26:19.716Z,9.09
2018-09-28T23:28:49.181Z,9.10
2018-09-28T23:31:18.681Z,9.08
2018-09-28T23:33:48.115Z,9.07
2018-09-28T23:36:17.597Z,9.05
2018-09-28T23:38:47.093Z,9.04
2018-09-28T23:41:16.586Z,9.02
2018-09-28T23:43:46.257Z,8.96
2018-09-28T23:46:15.744Z,8.97
2018-09-28T23:48:45.272Z,8.97
2018-09-28T23:51:14.760Z,8.96
2018-09-28T23:53:44.204Z,8.92
2018-09-28T23:56:13.629Z,8.91
2018-09-28T23:58:43.051Z,8.92
